Airport View

Enter AWOS ICAO identifier for current METAR.

ex. KFNL

KAEJ 220105Z AUTO 14009KT 10SM CLR M02/M15 A2995 RMK AO2 T10211146

22 Feb 2018 01:11

Frequency: 132.925

Phone: 719-395-2599

Other Area AWOS: K7BM - KANK - KMYP - KLXV

TAF KASE 212337Z 2200/2224 36006KT P6SM VCSH SCT040 OVC080 TEMPO 2201/2203 4SM -SN BKN030 FM220300 18004KT P6SM VCSH BKN040 BKN050 FM221700 26005KT P6SM VCSH BKN025 BKN035 FM221900 27008KT P6SM BKN050